sensor_id;sensor_type;location;lat;lon;timestamp;pressure;altitude;pressure_sealevel;temperature;humidity
60355;BME280;46198;51.464;-0.066;2023-06-26T00:02:12;101471.28;;;18.55;72.68
60355;BME280;46198;51.464;-0.066;2023-06-26T00:04:42;101469.56;;;18.49;83.43
60355;BME280;46198;51.464;-0.066;2023-06-26T00:07:11;101473.38;;;18.48;77.71
60355;BME280;46198;51.464;-0.066;2023-06-26T00:09:40;101470.91;;;18.47;83.74
60355;BME280;46198;51.464;-0.066;2023-06-26T00:12:08;101477.09;;;18.37;84.83
60355;BME280;46198;51.464;-0.066;2023-06-26T00:14:36;101476.84;;;18.16;84.66
60355;BME280;46198;51.464;-0.066;2023-06-26T00:17:05;101476.53;;;18.35;84.88
60355;BME280;46198;51.464;-0.066;2023-06-26T00:19:33;101480.50;;;18.22;84.49
60355;BME280;46198;51.464;-0.066;2023-06-26T00:22:01;101481.63;;;18.26;85.67
60355;BME280;46198;51.464;-0.066;2023-06-26T00:24:31;101475.91;;;18.28;82.55
60355;BME280;46198;51.464;-0.066;2023-06-26T00:26:59;101480.28;;;18.29;85.83
60355;BME280;46198;51.464;-0.066;2023-06-26T00:29:27;101484.00;;;18.17;82.87
60355;BME280;46198;51.464;-0.066;2023-06-26T00:31:56;101484.84;;;18.18;90.67
60355;BME280;46198;51.464;-0.066;2023-06-26T00:34:25;101486.75;;;18.17;86.91
60355;BME280;46198;51.464;-0.066;2023-06-26T00:36:53;101491.34;;;18.12;93.83
60355;BME280;46198;51.464;-0.066;2023-06-26T00:39:23;101486.69;;;18.12;86.56
60355;BME280;46198;51.464;-0.066;2023-06-26T00:41:54;101485.72;;;18.02;96.17
60355;BME280;46198;51.464;-0.066;2023-06-26T00:44:47;101494.75;;;17.97;91.94
60355;BME280;46198;51.464;-0.066;2023-06-26T00:47:16;101486.97;;;17.94;96.92
60355;BME280;46198;51.464;-0.066;2023-06-26T00:49:44;101485.63;;;17.97;94.63
60355;BME280;46198;51.464;-0.066;2023-06-26T00:52:13;101503.53;;;17.99;95.96
60355;BME280;46198;51.464;-0.066;2023-06-26T00:54:41;101493.06;;;17.96;93.64
60355;BME280;46198;51.464;-0.066;2023-06-26T00:57:11;101496.91;;;17.78;100.00
60355;BME280;46198;51.464;-0.066;2023-06-26T00:59:39;101494.59;;;17.87;98.35
60355;BME280;46198;51.464;-0.066;2023-06-26T01:02:07;101505.50;;;17.82;100.00
60355;BME280;46198;51.464;-0.066;2023-06-26T01:04:36;101504.16;;;17.84;99.83
60355;BME280;46198;51.464;-0.066;2023-06-26T01:07:14;101508.81;;;17.84;97.14
60355;BME280;46198;51.464;-0.066;2023-06-26T01:09:43;101511.16;;;17.75;100.00
60355;BME280;46198;51.464;-0.066;2023-06-26T01:12:13;101514.56;;;17.82;97.17
60355;BME280;46198;51.464;-0.066;2023-06-26T01:14:41;101514.84;;;17.81;95.60
60355;BME280;46198;51.464;-0.066;2023-06-26T01:17:10;101516.38;;;17.77;100.00
60355;BME280;46198;51.464;-0.066;2023-06-26T01:19:44;101518.63;;;17.80;100.00
60355;BME280;46198;51.464;-0.066;2023-06-26T01:22:18;101526.22;;;17.72;100.00
60355;BME280;46198;51.464;-0.066;2023-06-26T01:24:56;101526.63;;;17.64;100.00
60355;BME280;46198;51.464;-0.066;2023-06-26T01:27:32;101529.63;;;17.63;100.00
60355;BME280;46198;51.464;-0.066;2023-06-26T01:30:01;101534.78;;;17.59;100.00
60355;BME280;46198;51.464;-0.066;2023-06-26T01:32:31;101535.09;;;17.46;100.00
60355;BME280;46198;51.464;-0.066;2023-06-26T01:35:02;101528.38;;;17.54;100.00
60355;BME280;46198;51.464;-0.066;2023-06-26T01:37:30;101539.81;;;17.50;100.00
60355;BME280;46198;51.464;-0.066;2023-06-26T01:39:58;101537.03;;;17.45;100.00
60355;BME280;46198;51.464;-0.066;2023-06-26T01:42:26;101542.84;;;17.49;100.00
60355;BME280;46198;51.464;-0.066;2023-06-26T01:44:56;101555.16;;;17.46;100.00
60355;BME280;46198;51.464;-0.066;2023-06-26T01:47:28;101555.38;;;17.45;100.00
60355;BME280;46198;51.464;-0.066;2023-06-26T01:50:02;101563.63;;;17.45;100.00
60355;BME280;46198;51.464;-0.066;2023-06-26T01:52:40;101553.41;;;17.40;100.00
60355;BME280;46198;51.464;-0.066;2023-06-26T01:55:15;101558.06;;;17.40;100.00
60355;BME280;46198;51.464;-0.066;2023-06-26T01:58:25;101555.56;;;17.38;100.00
60355;BME280;46198;51.464;-0.066;2023-06-26T02:00:55;101557.97;;;17.35;100.00
60355;BME280;46198;51.464;-0.066;2023-06-26T02:03:23;101565.53;;;17.27;100.00
60355;BME280;46198;51.464;-0.066;2023-06-26T02:05:52;101564.78;;;17.32;100.00
60355;BME280;46198;51.464;-0.066;2023-06-26T02:08:20;101566.13;;;17.30;100.00
60355;BME280;46198;51.464;-0.066;2023-06-26T02:10:49;101565.53;;;17.27;100.00
60355;BME280;46198;51.464;-0.066;2023-06-26T02:13:17;101563.78;;;17.21;100.00
60355;BME280;46198;51.464;-0.066;2023-06-26T02:15:46;101566.03;;;17.24;100.00
60355;BME280;46198;51.464;-0.066;2023-06-26T02:18:15;101567.16;;;17.12;100.00
60355;BME280;46198;51.464;-0.066;2023-06-26T02:20:44;101561.44;;;17.13;100.00
60355;BME280;46198;51.464;-0.066;2023-06-26T02:23:12;101561.91;;;17.10;100.00
60355;BME280;46198;51.464;-0.066;2023-06-26T02:25:41;101561.56;;;17.06;100.00
60355;BME280;46198;51.464;-0.066;2023-06-26T02:28:09;101574.78;;;17.10;100.00
60355;BME280;46198;51.464;-0.066;2023-06-26T02:30:37;101567.31;;;17.05;100.00
60355;BME280;46198;51.464;-0.066;2023-06-26T02:33:06;101569.78;;;17.06;100.00
60355;BME280;46198;51.464;-0.066;2023-06-26T02:35:35;101573.72;;;17.11;100.00
60355;BME280;46198;51.464;-0.066;2023-06-26T02:38:03;101579.34;;;17.04;100.00
60355;BME280;46198;51.464;-0.066;2023-06-26T02:40:32;101576.38;;;17.05;100.00
60355;BME280;46198;51.464;-0.066;2023-06-26T02:43:01;101572.81;;;17.05;100.00
60355;BME280;46198;51.464;-0.066;2023-06-26T02:45:31;101576.16;;;16.95;100.00
60355;BME280;46198;51.464;-0.066;2023-06-26T02:47:59;101583.66;;;17.00;100.00
60355;BME280;46198;51.464;-0.066;2023-06-26T02:50:28;101588.47;;;16.93;100.00
60355;BME280;46198;51.464;-0.066;2023-06-26T02:53:06;101596.47;;;16.94;100.00
60355;BME280;46198;51.464;-0.066;2023-06-26T02:55:42;101597.19;;;16.90;100.00
60355;BME280;46198;51.464;-0.066;2023-06-26T02:58:10;101594.47;;;16.78;100.00
60355;BME280;46198;51.464;-0.066;2023-06-26T03:00:39;101596.97;;;16.79;100.00
60355;BME280;46198;51.464;-0.066;2023-06-26T03:03:12;101589.19;;;16.76;100.00
60355;BME280;46198;51.464;-0.066;2023-06-26T03:05:40;101600.78;;;16.78;100.00
60355;BME280;46198;51.464;-0.066;2023-06-26T03:08:10;101596.81;;;16.74;100.00
60355;BME280;46198;51.464;-0.066;2023-06-26T03:10:38;101602.31;;;16.74;100.00
60355;BME280;46198;51.464;-0.066;2023-06-26T03:13:07;101612.59;;;16.67;100.00
60355;BME280;46198;51.464;-0.066;2023-06-26T03:15:35;101610.34;;;16.64;100.00
60355;BME280;46198;51.464;-0.066;2023-06-26T03:18:04;101604.00;;;16.63;100.00
60355;BME280;46198;51.464;-0.066;2023-06-26T03:20:32;101607.59;;;16.64;100.00
60355;BME280;46198;51.464;-0.066;2023-06-26T03:23:00;101597.34;;;16.59;100.00
60355;BME280;46198;51.464;-0.066;2023-06-26T03:25:30;101606.75;;;16.63;100.00
60355;BME280;46198;51.464;-0.066;2023-06-26T03:28:13;101605.22;;;16.56;100.00
60355;BME280;46198;51.464;-0.066;2023-06-26T03:30:41;101611.16;;;16.53;100.00
60355;BME280;46198;51.464;-0.066;2023-06-26T03:33:10;101608.19;;;16.54;100.00
60355;BME280;46198;51.464;-0.066;2023-06-26T03:35:38;101610.00;;;16.49;100.00
60355;BME280;46198;51.464;-0.066;2023-06-26T03:38:09;101615.47;;;16.49;100.00
60355;BME280;46198;51.464;-0.066;2023-06-26T03:40:38;101617.63;;;16.47;100.00
60355;BME280;46198;51.464;-0.066;2023-06-26T03:43:07;101622.50;;;16.45;100.00
60355;BME280;46198;51.464;-0.066;2023-06-26T03:45:52;101625.50;;;16.43;100.00
60355;BME280;46198;51.464;-0.066;2023-06-26T03:48:20;101636.34;;;16.38;100.00
60355;BME280;46198;51.464;-0.066;2023-06-26T03:50:48;101629.44;;;16.35;100.00
60355;BME280;46198;51.464;-0.066;2023-06-26T03:53:17;101637.31;;;16.32;100.00
60355;BME280;46198;51.464;-0.066;2023-06-26T03:55:46;101643.84;;;16.31;100.00
60355;BME280;46198;51.464;-0.066;2023-06-26T03:58:14;101644.69;;;16.31;100.00
60355;BME280;46198;51.464;-0.066;2023-06-26T04:00:43;101639.22;;;16.31;100.00
60355;BME280;46198;51.464;-0.066;2023-06-26T04:03:11;101642.41;;;16.28;100.00
60355;BME280;46198;51.464;-0.066;2023-06-26T04:05:41;101646.22;;;16.27;100.00
60355;BME280;46198;51.464;-0.066;2023-06-26T04:08:09;101648.38;;;16.25;100.00
60355;BME280;46198;51.464;-0.066;2023-06-26T04:10:37;101655.53;;;16.26;100.00
60355;BME280;46198;51.464;-0.066;2023-06-26T04:13:07;101648.97;;;16.27;100.00
60355;BME280;46198;51.464;-0.066;2023-06-26T04:15:35;101648.38;;;16.25;100.00
60355;BME280;46198;51.464;-0.066;2023-06-26T04:18:04;101641.72;;;16.21;100.00
60355;BME280;46198;51.464;-0.066;2023-06-26T04:20:32;101641.22;;;16.24;100.00
60355;BME280;46198;51.464;-0.066;2023-06-26T04:23:02;101647.78;;;16.23;100.00
60355;BME280;46198;51.464;-0.066;2023-06-26T04:25:30;101643.38;;;16.22;100.00
60355;BME280;46198;51.464;-0.066;2023-06-26T04:27:58;101655.53;;;16.26;100.00
60355;BME280;46198;51.464;-0.066;2023-06-26T04:30:28;101666.38;;;16.21;100.00
60355;BME280;46198;51.464;-0.066;2023-06-26T04:32:56;101668.03;;;16.22;100.00
60355;BME280;46198;51.464;-0.066;2023-06-26T04:35:26;101681.72;;;16.22;100.00
60355;BME280;46198;51.464;-0.066;2023-06-26T04:37:54;101680.44;;;16.25;100.00
60355;BME280;46198;51.464;-0.066;2023-06-26T04:40:22;101675.78;;;16.25;100.00
60355;BME280;46198;51.464;-0.066;2023-06-26T04:42:50;101673.16;;;16.30;100.00
60355;BME280;46198;51.464;-0.066;2023-06-26T04:45:18;101671.97;;;16.26;100.00
60355;BME280;46198;51.464;-0.066;2023-06-26T04:47:48;101677.47;;;16.26;100.00
60355;BME280;46198;51.464;-0.066;2023-06-26T04:50:16;101683.28;;;16.30;100.00
60355;BME280;46198;51.464;-0.066;2023-06-26T04:52:45;101677.47;;;16.26;100.00
60355;BME280;46198;51.464;-0.066;2023-06-26T04:55:14;101682.34;;;16.24;100.00
60355;BME280;46198;51.464;-0.066;2023-06-26T04:57:42;101682.22;;;16.19;100.00
60355;BME280;46198;51.464;-0.066;2023-06-26T05:00:11;101682.09;;;16.26;100.00
60355;BME280;46198;51.464;-0.066;2023-06-26T05:02:39;101686.03;;;16.30;100.00
60355;BME280;46198;51.464;-0.066;2023-06-26T05:05:09;101689.34;;;16.20;100.00
60355;BME280;46198;51.464;-0.066;2023-06-26T05:07:38;101696.03;;;16.24;100.00
60355;BME280;46198;51.464;-0.066;2023-06-26T05:10:07;101689.59;;;16.30;100.00
60355;BME280;46198;51.464;-0.066;2023-06-26T05:12:35;101688.06;;;16.34;100.00
60355;BME280;46198;51.464;-0.066;2023-06-26T05:15:04;101695.81;;;16.37;100.00
60355;BME280;46198;51.464;-0.066;2023-06-26T05:17:33;101697.00;;;16.42;100.00
60355;BME280;46198;51.464;-0.066;2023-06-26T05:20:01;101698.69;;;16.43;100.00
60355;BME280;46198;51.464;-0.066;2023-06-26T05:22:32;101691.88;;;16.45;100.00
60355;BME280;46198;51.464;-0.066;2023-06-26T05:25:03;101701.41;;;16.43;100.00
60355;BME280;46198;51.464;-0.066;2023-06-26T05:27:33;101711.44;;;16.49;100.00
60355;BME280;46198;51.464;-0.066;2023-06-26T05:30:02;101715.34;;;16.53;100.00
60355;BME280;46198;51.464;-0.066;2023-06-26T05:32:34;101705.94;;;16.60;100.00
60355;BME280;46198;51.464;-0.066;2023-06-26T05:35:03;101712.59;;;16.53;100.00
60355;BME280;46198;51.464;-0.066;2023-06-26T05:37:34;101723.69;;;16.58;100.00
60355;BME280;46198;51.464;-0.066;2023-06-26T05:40:03;101728.13;;;16.59;100.00
60355;BME280;46198;51.464;-0.066;2023-06-26T05:42:32;101734.78;;;16.63;100.00
60355;BME280;46198;51.464;-0.066;2023-06-26T05:45:00;101737.41;;;16.58;100.00
60355;BME280;46198;51.464;-0.066;2023-06-26T05:47:29;101732.06;;;16.75;100.00
60355;BME280;46198;51.464;-0.066;2023-06-26T05:49:58;101731.34;;;16.79;100.00
60355;BME280;46198;51.464;-0.066;2023-06-26T05:52:26;101718.94;;;16.77;100.00
60355;BME280;46198;51.464;-0.066;2023-06-26T05:54:57;101724.81;;;16.80;100.00
60355;BME280;46198;51.464;-0.066;2023-06-26T05:57:27;101720.63;;;16.90;100.00
60355;BME280;46198;51.464;-0.066;2023-06-26T05:59:57;101731.72;;;16.95;100.00
60355;BME280;46198;51.464;-0.066;2023-06-26T06:02:25;101730.13;;;16.99;100.00
60355;BME280;46198;51.464;-0.066;2023-06-26T06:04:55;101720.38;;;16.91;100.00
60355;BME280;46198;51.464;-0.066;2023-06-26T06:07:23;101729.69;;;17.02;100.00
60355;BME280;46198;51.464;-0.066;2023-06-26T06:09:52;101726.44;;;17.05;100.00
60355;BME280;46198;51.464;-0.066;2023-06-26T06:12:21;101716.75;;;17.14;100.00
60355;BME280;46198;51.464;-0.066;2023-06-26T06:14:50;101718.91;;;17.12;100.00
60355;BME280;46198;51.464;-0.066;2023-06-26T06:17:18;101718.34;;;17.10;100.00
60355;BME280;46198;51.464;-0.066;2023-06-26T06:19:46;101728.06;;;17.30;100.00
60355;BME280;46198;51.464;-0.066;2023-06-26T06:22:14;101730.53;;;17.43;100.00
60355;BME280;46198;51.464;-0.066;2023-06-26T06:24:44;101729.69;;;17.42;100.00
60355;BME280;46198;51.464;-0.066;2023-06-26T06:27:12;101731.06;;;17.57;100.00
60355;BME280;46198;51.464;-0.066;2023-06-26T06:29:42;101737.41;;;17.57;100.00
60355;BME280;46198;51.464;-0.066;2023-06-26T06:32:11;101741.31;;;17.61;100.00
60355;BME280;46198;51.464;-0.066;2023-06-26T06:34:39;101746.50;;;17.46;100.00
60355;BME280;46198;51.464;-0.066;2023-06-26T06:37:07;101750.53;;;17.55;100.00
60355;BME280;46198;51.464;-0.066;2023-06-26T06:39:35;101758.28;;;17.58;100.00
60355;BME280;46198;51.464;-0.066;2023-06-26T06:42:04;101758.88;;;17.60;100.00
60355;BME280;46198;51.464;-0.066;2023-06-26T06:44:32;101757.13;;;17.54;100.00
60355;BME280;46198;51.464;-0.066;2023-06-26T06:47:02;101756.56;;;17.69;100.00
60355;BME280;46198;51.464;-0.066;2023-06-26T06:49:30;101750.84;;;17.70;100.00
60355;BME280;46198;51.464;-0.066;2023-06-26T06:51:58;101750.25;;;17.68;100.00
60355;BME280;46198;51.464;-0.066;2023-06-26T06:54:26;101758.81;;;17.84;100.00
60355;BME280;46198;51.464;-0.066;2023-06-26T06:56:55;101762.72;;;17.88;100.00
60355;BME280;46198;51.464;-0.066;2023-06-26T06:59:23;101766.06;;;17.90;100.00
60355;BME280;46198;51.464;-0.066;2023-06-26T07:01:52;101764.34;;;18.01;100.00
60355;BME280;46198;51.464;-0.066;2023-06-26T07:04:21;101773.19;;;18.03;100.00
60355;BME280;46198;51.464;-0.066;2023-06-26T07:06:52;101774.22;;;18.13;100.00
60355;BME280;46198;51.464;-0.066;2023-06-26T07:09:24;101764.06;;;18.31;100.00
60355;BME280;46198;51.464;-0.066;2023-06-26T07:11:52;101766.06;;;18.35;100.00
60355;BME280;46198;51.464;-0.066;2023-06-26T07:14:20;101769.31;;;18.32;100.00
60355;BME280;46198;51.464;-0.066;2023-06-26T07:16:48;101764.72;;;18.38;100.00
60355;BME280;46198;51.464;-0.066;2023-06-26T07:19:17;101764.78;;;18.26;100.00
60355;BME280;46198;51.464;-0.066;2023-06-26T07:21:46;101768.56;;;18.54;100.00
60355;BME280;46198;51.464;-0.066;2023-06-26T07:24:15;101776.22;;;18.69;100.00
60355;BME280;46198;51.464;-0.066;2023-06-26T07:26:43;101782.06;;;18.55;100.00
60355;BME280;46198;51.464;-0.066;2023-06-26T07:29:15;101786.09;;;18.81;100.00
60355;BME280;46198;51.464;-0.066;2023-06-26T07:31:43;101790.91;;;18.74;100.00
60355;BME280;46198;51.464;-0.066;2023-06-26T07:34:12;101797.25;;;18.75;100.00
60355;BME280;46198;51.464;-0.066;2023-06-26T07:36:40;101788.38;;;19.07;100.00
60355;BME280;46198;51.464;-0.066;2023-06-26T07:39:10;101785.47;;;19.35;100.00
60355;BME280;46198;51.464;-0.066;2023-06-26T07:41:43;101791.28;;;19.61;100.00
60355;BME280;46198;51.464;-0.066;2023-06-26T07:44:11;101796.16;;;19.54;100.00
60355;BME280;46198;51.464;-0.066;2023-06-26T07:46:41;101796.75;;;19.56;100.00
60355;BME280;46198;51.464;-0.066;2023-06-26T07:49:09;101800.34;;;19.78;100.00
60355;BME280;46198;51.464;-0.066;2023-06-26T07:51:37;101798.69;;;19.77;95.42
60355;BME280;46198;51.464;-0.066;2023-06-26T07:54:05;101803.72;;;19.85;100.00
60355;BME280;46198;51.464;-0.066;2023-06-26T07:56:52;101806.59;;;20.23;97.76
60355;BME280;46198;51.464;-0.066;2023-06-26T07:59:21;101805.84;;;20.32;91.84
60355;BME280;46198;51.464;-0.066;2023-06-26T08:01:50;101804.25;;;20.64;91.15
60355;BME280;46198;51.464;-0.066;2023-06-26T08:04:20;101806.09;;;20.90;88.48
60355;BME280;46198;51.464;-0.066;2023-06-26T08:06:49;101816.44;;;21.10;93.93
60355;BME280;46198;51.464;-0.066;2023-06-26T08:09:19;101812.78;;;21.42;88.18
60355;BME280;46198;51.464;-0.066;2023-06-26T08:11:50;101814.81;;;21.19;83.18
60355;BME280;46198;51.464;-0.066;2023-06-26T08:14:18;101822.81;;;21.58;80.94
60355;BME280;46198;51.464;-0.066;2023-06-26T08:16:47;101813.53;;;21.32;78.19
60355;BME280;46198;51.464;-0.066;2023-06-26T08:19:16;101812.91;;;21.78;75.91
60355;BME280;46198;51.464;-0.066;2023-06-26T08:21:45;101814.75;;;21.04;74.30
60355;BME280;46198;51.464;-0.066;2023-06-26T08:24:14;101827.63;;;21.31;72.99
60355;BME280;46198;51.464;-0.066;2023-06-26T08:26:45;101820.22;;;21.41;72.34
60355;BME280;46198;51.464;-0.066;2023-06-26T08:29:15;101830.00;;;21.64;74.29
60355;BME280;46198;51.464;-0.066;2023-06-26T08:31:44;101809.13;;;21.99;69.34
60355;BME280;46198;51.464;-0.066;2023-06-26T08:34:12;101806.34;;;21.99;66.90
60355;BME280;46198;51.464;-0.066;2023-06-26T08:36:40;101804.78;;;22.60;68.91
60355;BME280;46198;51.464;-0.066;2023-06-26T08:39:09;101803.69;;;22.45;62.46
60355;BME280;46198;51.464;-0.066;2023-06-26T08:41:37;101801.47;;;22.37;65.02
60355;BME280;46198;51.464;-0.066;2023-06-26T08:44:05;101787.34;;;22.59;64.01
60355;BME280;46198;51.464;-0.066;2023-06-26T08:46:35;101803.94;;;22.49;57.95
60355;BME280;46198;51.464;-0.066;2023-06-26T08:49:05;101804.22;;;22.68;64.17
60355;BME280;46198;51.464;-0.066;2023-06-26T08:51:38;101822.66;;;21.90;59.19
60355;BME280;46198;51.464;-0.066;2023-06-26T08:54:15;101824.16;;;22.60;60.14
60355;BME280;46198;51.464;-0.066;2023-06-26T08:56:46;101811.09;;;23.11;57.57
60355;BME280;46198;51.464;-0.066;2023-06-26T08:59:17;101812.13;;;23.46;59.37
60355;BME280;46198;51.464;-0.066;2023-06-26T09:01:47;101819.41;;;23.16;50.04
60355;BME280;46198;51.464;-0.066;2023-06-26T09:04:16;101814.13;;;23.15;52.43
60355;BME280;46198;51.464;-0.066;2023-06-26T09:06:44;101819.13;;;23.18;49.84
60355;BME280;46198;51.464;-0.066;2023-06-26T09:09:12;101817.94;;;23.44;48.95
60355;BME280;46198;51.464;-0.066;2023-06-26T09:11:41;101816.94;;;22.94;46.69
60355;BME280;46198;51.464;-0.066;2023-06-26T09:14:09;101828.56;;;22.91;49.78
60355;BME280;46198;51.464;-0.066;2023-06-26T09:16:41;101825.25;;;22.48;46.87
60355;BME280;46198;51.464;-0.066;2023-06-26T09:19:12;101821.38;;;22.49;46.20
60355;BME280;46198;51.464;-0.066;2023-06-26T09:21:41;101826.91;;;22.49;44.75
60355;BME280;46198;51.464;-0.066;2023-06-26T09:24:10;101831.34;;;22.40;47.84
60355;BME280;46198;51.464;-0.066;2023-06-26T09:26:40;101838.81;;;22.40;46.89
60355;BME280;46198;51.464;-0.066;2023-06-26T09:29:08;101823.03;;;22.55;49.79
60355;BME280;46198;51.464;-0.066;2023-06-26T09:31:37;101847.41;;;22.43;46.66
60355;BME280;46198;51.464;-0.066;2023-06-26T09:34:09;101848.34;;;21.86;46.40
60355;BME280;46198;51.464;-0.066;2023-06-26T09:36:39;101845.72;;;22.37;48.78
60355;BME280;46198;51.464;-0.066;2023-06-26T09:39:09;101857.91;;;22.51;46.44
60355;BME280;46198;51.464;-0.066;2023-06-26T09:41:41;101849.94;;;21.72;45.05
60355;BME280;46198;51.464;-0.066;2023-06-26T09:44:11;101835.69;;;22.10;48.59
60355;BME280;46198;51.464;-0.066;2023-06-26T09:46:40;101845.66;;;22.17;46.32
60355;BME280;46198;51.464;-0.066;2023-06-26T09:49:10;101841.81;;;22.18;44.93
60355;BME280;46198;51.464;-0.066;2023-06-26T09:51:41;101857.78;;;22.05;46.25
60355;BME280;46198;51.464;-0.066;2023-06-26T09:54:09;101852.38;;;22.41;45.01
60355;BME280;46198;51.464;-0.066;2023-06-26T09:56:38;101856.53;;;22.44;44.97
60355;BME280;46198;51.464;-0.066;2023-06-26T09:59:07;101853.66;;;22.08;45.58
60355;BME280;46198;51.464;-0.066;2023-06-26T10:01:41;101859.44;;;22.06;44.10
60355;BME280;46198;51.464;-0.066;2023-06-26T10:04:10;101855.66;;;22.33;42.94
60355;BME280;46198;51.464;-0.066;2023-06-26T10:06:45;101874.41;;;22.10;43.23
60355;BME280;46198;51.464;-0.066;2023-06-26T10:09:16;101874.41;;;22.10;41.68
60355;BME280;46198;51.464;-0.066;2023-06-26T10:11:49;101869.97;;;22.04;42.64
60355;BME280;46198;51.464;-0.066;2023-06-26T10:14:21;101866.19;;;22.31;44.43
60355;BME280;46198;51.464;-0.066;2023-06-26T10:16:50;101865.94;;;22.43;44.97
60355;BME280;46198;51.464;-0.066;2023-06-26T10:19:19;101855.44;;;22.70;41.31
60355;BME280;46198;51.464;-0.066;2023-06-26T10:21:54;101883.16;;;21.87;39.09
60355;BME280;46198;51.464;-0.066;2023-06-26T10:24:24;101874.47;;;22.21;40.25
60355;BME280;46198;51.464;-0.066;2023-06-26T10:26:57;101888.50;;;22.09;41.59
60355;BME280;46198;51.464;-0.066;2023-06-26T10:29:27;101869.81;;;22.37;41.94
60355;BME280;46198;51.464;-0.066;2023-06-26T10:31:57;101872.56;;;22.31;41.60
60355;BME280;46198;51.464;-0.066;2023-06-26T10:34:30;101873.41;;;22.37;39.18
60355;BME280;46198;51.464;-0.066;2023-06-26T10:37:00;101877.31;;;22.56;39.26
60355;BME280;46198;51.464;-0.066;2023-06-26T10:39:46;101877.31;;;22.56;40.14
60355;BME280;46198;51.464;-0.066;2023-06-26T10:42:15;101884.22;;;22.74;39.67
60355;BME280;46198;51.464;-0.066;2023-06-26T10:44:44;101886.72;;;23.07;40.80
60355;BME280;46198;51.464;-0.066;2023-06-26T10:47:29;101880.06;;;23.23;41.94
60355;BME280;46198;51.464;-0.066;2023-06-26T10:50:16;101882.81;;;23.28;40.31
60355;BME280;46198;51.464;-0.066;2023-06-26T10:53:10;101893.00;;;23.53;40.93
60355;BME280;46198;51.464;-0.066;2023-06-26T10:55:42;101886.06;;;23.71;41.65
60355;BME280;46198;51.464;-0.066;2023-06-26T10:58:30;101885.97;;;23.97;39.51
60355;BME280;46198;51.464;-0.066;2023-06-26T11:01:20;101887.22;;;24.25;40.45
60355;BME280;46198;51.464;-0.066;2023-06-26T11:04:00;101891.06;;;24.29;38.35
60355;BME280;46198;51.464;-0.066;2023-06-26T11:06:33;101877.00;;;24.10;40.99
60355;BME280;46198;51.464;-0.066;2023-06-26T11:09:07;101889.81;;;24.06;38.58
60355;BME280;46198;51.464;-0.066;2023-06-26T11:11:59;101879.47;;;24.22;36.83
60355;BME280;46198;51.464;-0.066;2023-06-26T11:14:32;101882.09;;;23.93;38.39
60355;BME280;46198;51.464;-0.066;2023-06-26T11:17:03;101876.44;;;23.48;38.12
60355;BME280;46198;51.464;-0.066;2023-06-26T11:19:32;101881.06;;;23.73;35.75
60355;BME280;46198;51.464;-0.066;2023-06-26T11:22:04;101888.94;;;23.10;37.42
60355;BME280;46198;51.464;-0.066;2023-06-26T11:24:34;101889.03;;;23.90;38.27
60355;BME280;46198;51.464;-0.066;2023-06-26T11:27:04;101885.25;;;24.25;38.51
60355;BME280;46198;51.464;-0.066;2023-06-26T11:29:32;101889.97;;;24.25;37.24
60355;BME280;46198;51.464;-0.066;2023-06-26T11:32:03;101891.56;;;24.36;35.95
60355;BME280;46198;51.464;-0.066;2023-06-26T11:34:33;101891.09;;;24.24;36.09
60355;BME280;46198;51.464;-0.066;2023-06-26T11:37:02;101895.19;;;24.37;37.46
60355;BME280;46198;51.464;-0.066;2023-06-26T11:39:30;101893.00;;;25.07;38.03
60355;BME280;46198;51.464;-0.066;2023-06-26T11:42:00;101895.13;;;24.86;34.12
60355;BME280;46198;51.464;-0.066;2023-06-26T11:44:30;101906.72;;;25.28;36.08
60355;BME280;46198;51.464;-0.066;2023-06-26T11:46:58;101899.34;;;24.84;35.37
60355;BME280;46198;51.464;-0.066;2023-06-26T11:49:28;101902.78;;;25.34;33.49
60355;BME280;46198;51.464;-0.066;2023-06-26T11:51:57;101906.88;;;25.65;36.13
60355;BME280;46198;51.464;-0.066;2023-06-26T11:54:26;101900.03;;;26.25;33.00
60355;BME280;46198;51.464;-0.066;2023-06-26T11:56:56;101896.31;;;26.11;32.56
60355;BME280;46198;51.464;-0.066;2023-06-26T11:59:32;101910.03;;;26.83;35.07
60355;BME280;46198;51.464;-0.066;2023-06-26T12:02:04;101908.50;;;26.58;34.02
60355;BME280;46198;51.464;-0.066;2023-06-26T12:04:33;101912.88;;;26.96;34.58
60355;BME280;46198;51.464;-0.066;2023-06-26T12:07:02;101924.13;;;26.53;31.97
60355;BME280;46198;51.464;-0.066;2023-06-26T12:09:34;101918.84;;;26.33;33.54
60355;BME280;46198;51.464;-0.066;2023-06-26T12:12:06;101912.25;;;27.00;30.71
60355;BME280;46198;51.464;-0.066;2023-06-26T12:14:37;101909.13;;;27.80;34.14
60355;BME280;46198;51.464;-0.066;2023-06-26T12:17:09;101904.66;;;28.07;32.13
60355;BME280;46198;51.464;-0.066;2023-06-26T12:19:39;101906.59;;;27.65;32.88
60355;BME280;46198;51.464;-0.066;2023-06-26T12:22:08;101916.66;;;27.19;31.53
60355;BME280;46198;51.464;-0.066;2023-06-26T12:24:38;101908.66;;;28.01;31.16
60355;BME280;46198;51.464;-0.066;2023-06-26T12:27:10;101919.81;;;28.15;32.38
60355;BME280;46198;51.464;-0.066;2023-06-26T12:29:45;101916.25;;;26.93;31.22
60355;BME280;46198;51.464;-0.066;2023-06-26T12:32:14;101920.06;;;27.16;31.34
60355;BME280;46198;51.464;-0.066;2023-06-26T12:34:47;101903.06;;;27.32;32.36
60355;BME280;46198;51.464;-0.066;2023-06-26T12:37:16;101904.28;;;26.60;31.03
60355;BME280;46198;51.464;-0.066;2023-06-26T12:39:45;101898.47;;;26.89;32.79
60355;BME280;46198;51.464;-0.066;2023-06-26T12:42:16;101902.06;;;27.42;32.03
60355;BME280;46198;51.464;-0.066;2023-06-26T12:44:46;101897.50;;;27.32;31.33
60355;BME280;46198;51.464;-0.066;2023-06-26T12:47:15;101897.69;;;27.35;31.98
60355;BME280;46198;51.464;-0.066;2023-06-26T12:49:45;101894.03;;;28.32;31.91
60355;BME280;46198;51.464;-0.066;2023-06-26T12:52:15;101887.88;;;28.57;29.73